Time;durP1;ratioP1;P1;durP2;ratioP2;P2;SDS_P1;SDS_P2;PMS_P1;PMS_P2;Temp;Humidity;BMP_temperature;BMP_pressure;BME280_temperature;BME280_humidity;BME280_pressure;Samples;Min_cycle;Max_cycle;Signal;HPM_P1;HPM_P2
2021/09/11 00:02:22;;;;;;;13.63;12.53;;;18.90;99.90;;;;;;4971832;28;20620;-79
2021/09/11 00:04:49;;;;;;;14.43;13.13;;;18.90;99.90;;;;;;4973094;28;20201;-79
2021/09/11 00:07:16;;;;;;;14.00;12.80;;;18.90;99.90;;;;;;4971934;28;20683;-80
2021/09/11 00:09:43;;;;;;;13.67;12.57;;;18.90;99.90;;;;;;4964721;28;20229;-78
2021/09/11 00:12:11;;;;;;;14.27;13.07;;;18.90;99.90;;;;;;4966114;28;20206;-77
2021/09/11 00:14:38;;;;;;;14.70;13.50;;;18.90;99.90;;;;;;4962529;28;20230;-77
2021/09/11 00:17:06;;;;;;;14.87;13.67;;;18.90;99.90;;;;;;4967513;28;20236;-78
2021/09/11 00:19:34;;;;;;;13.53;12.43;;;18.90;99.90;;;;;;4956888;28;20280;-79
2021/09/11 00:22:01;;;;;;;14.07;12.87;;;18.90;99.90;;;;;;4960208;28;20283;-78
2021/09/11 00:24:28;;;;;;;14.40;13.20;;;18.90;99.90;;;;;;4962612;28;20552;-79
2021/09/11 00:26:56;;;;;;;14.53;13.23;;;18.90;99.90;;;;;;4965195;28;20263;-79
2021/09/11 00:29:23;;;;;;;14.50;13.20;;;18.90;99.90;;;;;;4962549;28;20307;-79
2021/09/11 00:31:50;;;;;;;15.93;14.43;;;18.90;99.90;;;;;;4951209;28;20204;-79
2021/09/11 00:34:18;;;;;;;14.80;13.40;;;18.90;99.90;;;;;;4965513;28;20249;-78
2021/09/11 00:36:45;;;;;;;13.83;12.67;;;18.80;99.90;;;;;;4963083;28;20252;-79
2021/09/11 00:39:11;;;;;;;14.70;13.50;;;18.80;99.90;;;;;;4963381;28;20280;-79
2021/09/11 00:41:38;;;;;;;15.23;13.93;;;18.80;99.90;;;;;;4960684;28;20254;-78
2021/09/11 00:44:05;;;;;;;15.43;14.13;;;18.80;99.90;;;;;;4963511;28;20722;-79
2021/09/11 00:46:33;;;;;;;14.33;13.13;;;18.80;99.90;;;;;;4962498;28;20206;-79
2021/09/11 00:49:00;;;;;;;14.33;13.03;;;18.70;99.90;;;;;;4965180;28;20221;-78
2021/09/11 00:51:28;;;;;;;14.63;13.23;;;18.70;99.90;;;;;;4968663;28;20206;-79
2021/09/11 00:53:55;;;;;;;14.00;12.70;;;18.70;99.90;;;;;;4968910;28;20197;-79
2021/09/11 00:56:22;;;;;;;15.57;14.33;;;18.70;99.90;;;;;;4967291;28;20246;-78
2021/09/11 00:58:49;;;;;;;15.07;13.77;;;18.70;99.90;;;;;;4967722;28;20225;-79
2021/09/11 01:01:16;;;;;;;16.13;14.53;;;18.70;99.90;;;;;;4968527;28;20209;-79
2021/09/11 01:03:43;;;;;;;15.63;14.23;;;18.60;99.90;;;;;;4965975;28;20245;-78
2021/09/11 01:06:11;;;;;;;15.97;14.63;;;18.60;99.90;;;;;;4968221;28;20261;-79
2021/09/11 01:08:41;;;;;;;15.23;13.93;;;18.60;99.90;;;;;;4964878;28;20822;-78
2021/09/11 01:11:07;;;;;;;15.37;13.97;;;18.50;99.90;;;;;;4968407;28;20219;-78
2021/09/11 01:13:35;;;;;;;14.73;13.53;;;18.50;99.90;;;;;;4965657;28;20209;-77
2021/09/11 01:16:02;;;;;;;15.10;13.70;;;18.50;99.90;;;;;;4969748;28;20198;-79
2021/09/11 01:18:29;;;;;;;14.43;13.13;;;18.50;99.90;;;;;;4965993;28;20357;-79
2021/09/11 01:20:57;;;;;;;14.40;13.30;;;18.50;99.90;;;;;;4963137;28;20206;-79
2021/09/11 01:23:24;;;;;;;14.10;13.00;;;18.50;99.90;;;;;;4961882;28;20206;-78
2021/09/11 01:25:53;;;;;;;14.03;12.83;;;18.50;99.90;;;;;;4963425;28;20260;-77
2021/09/11 01:28:19;;;;;;;14.50;13.30;;;18.40;99.90;;;;;;4964467;28;20231;-78
2021/09/11 01:30:46;;;;;;;14.40;13.20;;;18.40;99.90;;;;;;4970796;28;20279;-79
2021/09/11 01:33:13;;;;;;;14.87;13.67;;;18.40;99.90;;;;;;4963552;28;20659;-79
2021/09/11 01:35:40;;;;;;;13.93;12.83;;;18.40;99.90;;;;;;4964550;28;20616;-78
2021/09/11 01:38:08;;;;;;;14.50;13.30;;;18.40;99.90;;;;;;4962936;28;20206;-78
2021/09/11 01:40:34;;;;;;;14.47;13.37;;;18.40;99.90;;;;;;4965204;28;20212;-78
2021/09/11 01:43:03;;;;;;;15.13;13.93;;;18.40;99.90;;;;;;4967234;28;20201;-78
2021/09/11 01:45:30;;;;;;;15.07;13.87;;;18.30;99.90;;;;;;4962081;28;20193;-79
2021/09/11 01:47:57;;;;;;;15.50;14.30;;;18.40;99.90;;;;;;4964074;28;20195;-79
2021/09/11 01:50:24;;;;;;;15.43;14.20;;;18.30;99.90;;;;;;4964232;28;20228;-79
2021/09/11 01:52:52;;;;;;;15.80;14.40;;;18.30;99.90;;;;;;4962773;28;20244;-79
2021/09/11 01:55:20;;;;;;;14.83;13.63;;;18.30;99.90;;;;;;4964248;28;20212;-78
2021/09/11 01:57:48;;;;;;;15.63;14.30;;;18.40;99.90;;;;;;4959716;28;20208;-79
2021/09/11 02:00:18;;;;;;;14.97;13.77;;;18.30;99.90;;;;;;4960260;28;20226;-79
2021/09/11 02:02:46;;;;;;;16.23;14.77;;;18.30;99.90;;;;;;4966641;28;20439;-78
2021/09/11 02:05:14;;;;;;;15.03;13.83;;;18.30;99.90;;;;;;4963626;28;20232;-78
2021/09/11 02:07:41;;;;;;;14.87;13.67;;;18.30;99.90;;;;;;4964057;28;20202;-79
2021/09/11 02:10:10;;;;;;;15.47;14.17;;;18.30;99.90;;;;;;4962537;28;20229;-79
2021/09/11 02:12:37;;;;;;;14.00;12.90;;;18.40;99.90;;;;;;4964609;28;20667;-77
2021/09/11 02:15:05;;;;;;;14.43;13.23;;;18.30;99.90;;;;;;4961459;28;20261;-78
2021/09/11 02:17:34;;;;;;;14.47;13.27;;;18.30;99.90;;;;;;4966274;28;20200;-79
2021/09/11 02:20:00;;;;;;;13.67;12.57;;;18.30;99.90;;;;;;4962883;28;20209;-79
2021/09/11 02:22:27;;;;;;;13.30;12.17;;;18.30;99.90;;;;;;4961286;28;20201;-79
2021/09/11 02:24:54;;;;;;;13.17;12.17;;;18.30;99.90;;;;;;4965734;28;20213;-78
2021/09/11 02:27:21;;;;;;;13.50;12.30;;;18.30;99.90;;;;;;4965801;28;20209;-79
2021/09/11 02:29:48;;;;;;;13.57;12.37;;;18.30;99.90;;;;;;4973057;28;20709;-79
2021/09/11 02:32:15;;;;;;;13.10;12.00;;;18.30;99.90;;;;;;4963599;28;20204;-79
2021/09/11 02:34:43;;;;;;;13.37;12.27;;;18.30;99.90;;;;;;4965804;28;20206;-79
2021/09/11 02:37:11;;;;;;;13.53;12.37;;;18.30;99.90;;;;;;4964726;28;20246;-79
2021/09/11 02:39:38;;;;;;;13.27;12.17;;;18.30;99.90;;;;;;4962814;28;20229;-81
2021/09/11 02:42:05;;;;;;;13.37;12.27;;;18.30;99.90;;;;;;4950983;28;20206;-78
2021/09/11 02:44:32;;;;;;;13.53;12.33;;;18.30;99.90;;;;;;4953906;28;20230;-80
2021/09/11 02:46:59;;;;;;;13.50;12.40;;;18.30;99.90;;;;;;4956822;28;20649;-80
2021/09/11 02:49:26;;;;;;;13.10;12.10;;;18.30;99.90;;;;;;4960224;28;20355;-78
2021/09/11 02:51:54;;;;;;;13.47;12.47;;;18.30;99.90;;;;;;4955069;28;20236;-80
2021/09/11 02:54:21;;;;;;;13.53;12.47;;;18.30;99.90;;;;;;4963090;28;20202;-80
2021/09/11 02:56:48;;;;;;;13.43;12.40;;;18.30;99.90;;;;;;4957068;28;20844;-77
2021/09/11 02:59:15;;;;;;;13.87;12.73;;;18.30;99.90;;;;;;4936198;28;20230;-77
2021/09/11 03:01:42;;;;;;;13.60;12.40;;;18.30;99.90;;;;;;4958414;28;20353;-78
2021/09/11 03:04:09;;;;;;;13.60;12.50;;;18.30;99.90;;;;;;4947054;28;20203;-79
2021/09/11 03:06:36;;;;;;;13.00;12.00;;;18.30;99.90;;;;;;4944690;28;20206;-79
2021/09/11 03:09:04;;;;;;;13.63;12.53;;;18.30;99.90;;;;;;4944322;28;20285;-79
2021/09/11 03:11:31;;;;;;;13.77;12.67;;;18.20;99.90;;;;;;4944446;28;20218;-80
2021/09/11 03:13:57;;;;;;;13.63;12.43;;;18.20;99.90;;;;;;4957731;28;20260;-80
2021/09/11 03:16:24;;;;;;;13.10;11.97;;;18.20;99.90;;;;;;4958984;28;20249;-79
2021/09/11 03:18:51;;;;;;;12.17;11.17;;;18.20;99.90;;;;;;4953484;28;20250;-78
2021/09/11 03:21:18;;;;;;;12.23;11.23;;;18.20;99.90;;;;;;4961065;28;20264;-81
2021/09/11 03:23:45;;;;;;;13.07;12.07;;;18.20;99.90;;;;;;4966513;28;20244;-79
2021/09/11 03:26:13;;;;;;;13.87;12.83;;;18.20;99.90;;;;;;4965700;28;20204;-78
2021/09/11 03:28:40;;;;;;;13.37;12.37;;;18.20;99.90;;;;;;4963902;28;20230;-78
2021/09/11 03:31:06;;;;;;;14.17;12.97;;;18.20;99.90;;;;;;4965467;28;20213;-81
2021/09/11 03:33:33;;;;;;;13.83;12.67;;;18.20;99.90;;;;;;4958323;28;20210;-79
2021/09/11 03:36:00;;;;;;;13.43;12.43;;;18.20;99.90;;;;;;4961706;28;20217;-79
2021/09/11 03:38:27;;;;;;;12.60;11.60;;;18.20;99.90;;;;;;4962555;28;20222;-77
2021/09/11 03:40:54;;;;;;;12.10;11.20;;;18.20;99.90;;;;;;4959383;28;20197;-79
2021/09/11 03:43:22;;;;;;;12.93;11.93;;;18.10;99.90;;;;;;4959078;28;20614;-79
2021/09/11 03:45:49;;;;;;;12.40;11.40;;;18.10;99.90;;;;;;4962010;28;20201;-79
2021/09/11 03:48:16;;;;;;;10.90;10.10;;;18.00;99.90;;;;;;4958111;28;20209;-80
2021/09/11 03:50:43;;;;;;;10.13;9.40;;;18.00;99.90;;;;;;4963894;28;20270;-79
2021/09/11 03:53:09;;;;;;;11.03;10.23;;;17.90;99.90;;;;;;4955778;28;20686;-79
2021/09/11 03:55:36;;;;;;;11.70;10.90;;;17.90;99.90;;;;;;4961941;28;20746;-79
2021/09/11 03:58:03;;;;;;;11.00;10.27;;;17.80;99.90;;;;;;4961384;28;20200;-79
2021/09/11 04:00:31;;;;;;;11.93;11.13;;;17.70;99.90;;;;;;4961131;28;20189;-79
2021/09/11 04:02:58;;;;;;;11.50;10.70;;;17.70;99.90;;;;;;4953602;28;20212;-79
2021/09/11 04:05:25;;;;;;;12.23;11.43;;;17.60;99.90;;;;;;4963542;28;20642;-78
2021/09/11 04:07:52;;;;;;;12.40;11.50;;;17.60;99.90;;;;;;4962706;28;20692;-76
2021/09/11 04:10:19;;;;;;;12.40;11.47;;;17.50;99.90;;;;;;4963140;28;20221;-79
2021/09/11 04:12:46;;;;;;;9.80;9.00;;;17.50;99.90;;;;;;4957265;28;20639;-79
2021/09/11 04:15:12;;;;;;;9.50;8.70;;;17.50;99.90;;;;;;4959683;28;20243;-79
2021/09/11 04:17:40;;;;;;;9.80;9.00;;;17.40;99.90;;;;;;4959828;28;20196;-79
2021/09/11 04:20:08;;;;;;;10.70;9.70;;;17.40;99.90;;;;;;4963952;28;20219;-79
2021/09/11 04:22:35;;;;;;;11.17;10.07;;;17.40;99.90;;;;;;4960447;28;20339;-79
2021/09/11 04:25:03;;;;;;;11.67;10.67;;;17.40;99.90;;;;;;4959191;28;20669;-79
2021/09/11 04:27:30;;;;;;;11.47;10.37;;;17.30;99.90;;;;;;4959527;28;20204;-79
2021/09/11 04:29:57;;;;;;;11.33;10.33;;;17.30;99.90;;;;;;4963416;28;20228;-79
2021/09/11 04:32:24;;;;;;;11.33;10.23;;;17.30;99.90;;;;;;4959411;28;20222;-79
2021/09/11 04:34:52;;;;;;;12.17;11.03;;;17.30;99.90;;;;;;4964327;28;20326;-79
2021/09/11 04:37:19;;;;;;;12.67;11.57;;;17.30;99.90;;;;;;4956996;28;20257;-79
2021/09/11 04:39:46;;;;;;;12.73;11.63;;;17.30;99.90;;;;;;4963854;28;20223;-79
2021/09/11 04:42:13;;;;;;;12.83;11.53;;;17.30;99.90;;;;;;4961894;28;20220;-79
2021/09/11 04:44:40;;;;;;;12.90;11.80;;;17.30;99.90;;;;;;4965541;28;20212;-78
2021/09/11 04:47:06;;;;;;;13.47;12.30;;;17.30;99.90;;;;;;4959616;28;20693;-77
2021/09/11 04:49:33;;;;;;;13.00;11.90;;;17.30;99.90;;;;;;4949086;28;20227;-77
2021/09/11 04:52:01;;;;;;;12.77;11.67;;;17.30;99.90;;;;;;4951747;28;20244;-77
2021/09/11 04:54:28;;;;;;;12.40;11.33;;;17.30;99.90;;;;;;4963716;28;20640;-77
2021/09/11 04:56:55;;;;;;;13.33;12.20;;;17.30;99.90;;;;;;4959063;28;20205;-77
2021/09/11 04:59:22;;;;;;;16.17;14.87;;;17.30;99.90;;;;;;4943988;28;20234;-77
2021/09/11 05:01:48;;;;;;;15.23;13.90;;;17.30;99.90;;;;;;4952849;28;20235;-77
2021/09/11 05:04:15;;;;;;;14.37;13.27;;;17.30;99.90;;;;;;4958572;28;20204;-77
2021/09/11 05:06:42;;;;;;;14.53;13.50;;;17.40;99.90;;;;;;4963437;28;20617;-80
2021/09/11 05:09:10;;;;;;;15.83;14.63;;;17.30;99.90;;;;;;4963139;28;20226;-80
2021/09/11 05:11:37;;;;;;;16.43;15.13;;;17.30;99.90;;;;;;4950559;28;20268;-79
2021/09/11 05:14:04;;;;;;;16.33;15.13;;;17.40;99.90;;;;;;4952239;28;20233;-79
2021/09/11 05:16:31;;;;;;;17.07;15.87;;;17.40;99.90;;;;;;4961889;28;20197;-79
2021/09/11 05:18:57;;;;;;;16.63;15.33;;;17.40;99.90;;;;;;4947267;28;20227;-79
2021/09/11 05:21:24;;;;;;;16.50;15.30;;;17.40;99.90;;;;;;4949473;28;20622;-80
2021/09/11 05:23:51;;;;;;;14.90;13.80;;;17.40;99.90;;;;;;4945148;28;20218;-79
2021/09/11 05:26:19;;;;;;;16.00;14.90;;;17.40;99.90;;;;;;4956523;28;20231;-79
2021/09/11 05:28:46;;;;;;;14.83;13.73;;;17.50;99.90;;;;;;4957927;28;20227;-80
2021/09/11 05:31:13;;;;;;;14.70;13.70;;;17.50;99.90;;;;;;4957358;28;20237;-79
2021/09/11 05:33:40;;;;;;;14.53;13.43;;;17.40;99.90;;;;;;4965001;28;20200;-79
2021/09/11 05:36:07;;;;;;;14.20;13.20;;;17.40;99.90;;;;;;4965584;28;20204;-79
2021/09/11 05:38:34;;;;;;;14.03;12.93;;;17.40;99.90;;;;;;4961704;28;20773;-79
2021/09/11 05:41:00;;;;;;;14.63;13.40;;;17.40;99.90;;;;;;4966301;28;20199;-79
2021/09/11 05:43:31;;;;;;;13.60;12.50;;;17.40;99.90;;;;;;4965675;28;20273;-79
2021/09/11 05:45:58;;;;;;;13.57;12.57;;;17.40;99.90;;;;;;4969660;28;20207;-79
2021/09/11 05:48:25;;;;;;;13.13;12.03;;;17.40;99.90;;;;;;4963491;28;20220;-78
2021/09/11 05:50:52;;;;;;;13.00;12.00;;;17.40;99.90;;;;;;4960641;28;20236;-79
2021/09/11 05:53:19;;;;;;;12.67;11.67;;;17.40;99.90;;;;;;4964330;28;20213;-79
2021/09/11 05:55:46;;;;;;;12.83;11.90;;;17.40;99.90;;;;;;4964785;28;20315;-79
2021/09/11 05:58:13;;;;;;;13.47;12.57;;;17.40;99.90;;;;;;4961915;28;20218;-79
2021/09/11 06:00:42;;;;;;;13.40;12.50;;;17.40;99.90;;;;;;4965795;28;20308;-79
2021/09/11 06:03:09;;;;;;;13.37;12.40;;;17.40;99.90;;;;;;4963584;28;20303;-79
2021/09/11 06:05:36;;;;;;;11.57;10.77;;;17.50;99.90;;;;;;4963458;28;20193;-79
2021/09/11 06:08:03;;;;;;;11.30;10.50;;;17.50;99.90;;;;;;4961747;28;20576;-79
2021/09/11 06:10:29;;;;;;;11.37;10.50;;;17.60;99.90;;;;;;4962374;28;20672;-80
2021/09/11 06:12:56;;;;;;;13.87;12.97;;;17.60;99.90;;;;;;4969240;28;20280;-78
2021/09/11 06:15:23;;;;;;;14.03;13.13;;;17.60;99.90;;;;;;4964611;28;20239;-78
2021/09/11 06:17:51;;;;;;;14.27;13.37;;;17.60;99.90;;;;;;4960441;28;20211;-78
2021/09/11 06:20:19;;;;;;;13.40;12.60;;;17.70;99.90;;;;;;4965448;28;20265;-78
2021/09/11 06:22:45;;;;;;;13.93;13.03;;;17.70;99.90;;;;;;4966598;28;20326;-77
2021/09/11 06:25:13;;;;;;;13.43;12.57;;;17.70;99.90;;;;;;4955609;28;20209;-79
2021/09/11 06:27:40;;;;;;;12.73;11.93;;;17.70;99.90;;;;;;4953718;28;20582;-77
2021/09/11 06:30:08;;;;;;;12.10;11.30;;;17.80;99.90;;;;;;4955098;28;20222;-79
2021/09/11 06:32:36;;;;;;;11.40;10.60;;;17.80;99.90;;;;;;4951497;28;20710;-81
2021/09/11 06:35:10;;;;;;;12.47;11.63;;;17.80;99.90;;;;;;4954302;28;20235;-79
2021/09/11 06:37:42;;;;;;;11.80;11.00;;;17.80;99.90;;;;;;4956534;28;20211;-81
2021/09/11 06:40:12;;;;;;;13.43;12.47;;;17.90;99.90;;;;;;4964865;28;20261;-77
2021/09/11 06:42:39;;;;;;;12.87;11.97;;;17.90;99.90;;;;;;4966497;28;20208;-77
2021/09/11 06:45:06;;;;;;;13.00;12.10;;;18.00;99.90;;;;;;4965569;28;20209;-78
2021/09/11 06:47:33;;;;;;;13.20;12.20;;;18.00;99.90;;;;;;4965106;28;20249;-78
2021/09/11 06:50:00;;;;;;;13.43;12.53;;;18.00;99.90;;;;;;4956385;28;20304;-78
2021/09/11 06:52:28;;;;;;;12.80;12.00;;;18.10;99.90;;;;;;4964050;28;20218;-77
2021/09/11 06:54:55;;;;;;;11.77;11.07;;;18.10;99.90;;;;;;4961590;28;20194;-77
2021/09/11 06:57:22;;;;;;;9.23;8.40;;;18.20;99.90;;;;;;4951127;28;20226;-78
2021/09/11 06:59:49;;;;;;;11.40;10.60;;;18.30;99.90;;;;;;4952298;28;20229;-77
2021/09/11 07:02:15;;;;;;;10.20;9.40;;;18.30;99.90;;;;;;4960602;28;20719;-78
2021/09/11 07:04:42;;;;;;;12.17;11.17;;;18.40;99.90;;;;;;4948807;28;20198;-78
2021/09/11 07:07:09;;;;;;;11.20;10.50;;;18.50;99.90;;;;;;4946118;28;20199;-78
2021/09/11 07:09:37;;;;;;;11.20;10.30;;;18.60;99.90;;;;;;4953672;28;20228;-78
2021/09/11 07:12:04;;;;;;;10.43;9.73;;;18.70;99.90;;;;;;4962034;28;20258;-78
2021/09/11 07:14:31;;;;;;;12.57;11.77;;;18.80;99.90;;;;;;4964500;28;20206;-77
2021/09/11 07:16:58;;;;;;;13.60;12.70;;;18.90;99.90;;;;;;4965531;28;20314;-78
2021/09/11 07:19:28;;;;;;;5.67;5.10;;;19.00;99.90;;;;;;4960414;28;20233;-79
2021/09/11 07:21:55;;;;;;;5.60;5.03;;;19.10;99.90;;;;;;4966627;28;20691;-77
2021/09/11 07:24:21;;;;;;;7.00;6.47;;;19.40;99.90;;;;;;4962376;28;20645;-78
2021/09/11 07:26:50;;;;;;;5.90;5.07;;;19.50;99.90;;;;;;4961051;28;20207;-78
2021/09/11 07:29:17;;;;;;;6.20;5.70;;;19.70;99.90;;;;;;4961980;28;20228;-78
2021/09/11 07:31:44;;;;;;;9.40;8.80;;;19.80;99.90;;;;;;4962626;28;20225;-78
2021/09/11 07:34:10;;;;;;;10.00;9.40;;;20.00;99.90;;;;;;4964490;28;20293;-79
2021/09/11 07:36:41;;;;;;;11.07;10.07;;;20.10;99.90;;;;;;4958853;28;20204;-78
2021/09/11 07:39:09;;;;;;;5.07;4.00;;;20.40;99.90;;;;;;4960087;28;20220;-78
2021/09/11 07:41:36;;;;;;;11.00;10.20;;;20.90;99.90;;;;;;4963965;28;20297;-78
2021/09/11 07:44:04;;;;;;;9.20;8.57;;;21.40;99.90;;;;;;4962957;28;20248;-78
2021/09/11 07:46:31;;;;;;;7.03;6.50;;;21.90;99.90;;;;;;4964400;28;20201;-78
2021/09/11 07:48:58;;;;;;;6.60;6.00;;;22.50;99.90;;;;;;4963906;28;20225;-78
2021/09/11 07:51:25;;;;;;;7.63;7.13;;;23.10;99.90;;;;;;4955610;28;20199;-81
2021/09/11 07:53:52;;;;;;;9.87;9.10;;;23.30;99.90;;;;;;4955471;28;20215;-81
2021/09/11 07:56:19;;;;;;;8.10;7.40;;;23.10;99.90;;;;;;4959666;28;20203;-81
2021/09/11 07:58:46;;;;;;;8.80;8.10;;;23.00;99.90;;;;;;4957183;28;20284;-81
2021/09/11 08:01:15;;;;;;;8.13;7.53;;;22.70;99.90;;;;;;4950956;28;20208;-80
2021/09/11 08:03:42;;;;;;;8.90;8.20;;;22.70;99.90;;;;;;4951735;28;20602;-81
2021/09/11 08:06:08;;;;;;;8.27;7.57;;;22.80;99.90;;;;;;4965494;28;20202;-82
2021/09/11 08:08:35;;;;;;;7.30;6.80;;;23.10;99.90;;;;;;4963668;28;20223;-81
2021/09/11 08:11:03;;;;;;;7.70;7.13;;;23.20;99.90;;;;;;4955840;28;20224;-82
2021/09/11 08:13:30;;;;;;;8.07;7.30;;;23.00;99.90;;;;;;4961921;28;20972;-81
2021/09/11 08:15:57;;;;;;;8.80;8.20;;;23.00;99.90;;;;;;4952468;28;20199;-81
2021/09/11 08:18:26;;;;;;;9.90;9.20;;;22.80;99.90;;;;;;4946624;28;20301;-81
2021/09/11 08:20:53;;;;;;;10.20;9.47;;;22.80;99.90;;;;;;4963275;28;20340;-81
2021/09/11 08:23:21;;;;;;;10.27;9.57;;;22.80;99.90;;;;;;4957710;28;20198;-81
2021/09/11 08:25:49;;;;;;;8.40;7.80;;;22.70;99.90;;;;;;4954794;28;20580;-80
2021/09/11 08:28:19;;;;;;;7.80;7.30;;;22.50;99.90;;;;;;4935124;29;20214;-80
2021/09/11 08:30:46;;;;;;;7.87;7.27;;;22.40;99.90;;;;;;4955154;28;20234;-80
2021/09/11 08:33:14;;;;;;;7.43;6.93;;;22.40;99.90;;;;;;4950553;28;20218;-80
2021/09/11 08:35:43;;;;;;;7.70;7.20;;;22.40;99.90;;;;;;4961180;28;20210;-80
2021/09/11 08:38:10;;;;;;;8.50;7.83;;;22.50;99.90;;;;;;4952515;28;20215;-81
2021/09/11 08:40:37;;;;;;;8.30;7.67;;;22.60;99.90;;;;;;4950397;28;20218;-81
2021/09/11 08:43:05;;;;;;;8.37;7.77;;;22.70;99.90;;;;;;4951955;28;20223;-80
2021/09/11 08:45:32;;;;;;;8.53;8.03;;;23.00;99.90;;;;;;4948022;28;20220;-81
2021/09/11 08:48:00;;;;;;;7.47;6.87;;;23.20;99.90;;;;;;4951615;28;20202;-81
2021/09/11 08:50:29;;;;;;;8.20;7.60;;;23.30;99.90;;;;;;4947748;28;20635;-80
2021/09/11 08:52:57;;;;;;;8.23;7.63;;;23.20;99.90;;;;;;4945619;28;20706;-81
2021/09/11 08:55:24;;;;;;;8.23;7.63;;;23.10;99.90;;;;;;4961527;28;20194;-81
2021/09/11 08:58:02;;;;;;;7.97;7.37;;;23.00;99.90;;;;;;4943322;28;20202;-80
2021/09/11 09:00:44;;;;;;;7.10;6.50;;;23.00;99.90;;;;;;4943437;28;20215;-80
2021/09/11 09:03:35;;;;;;;7.07;6.57;;;23.00;99.90;;;;;;4961535;28;20205;-80
2021/09/11 09:06:20;;;;;;;7.77;7.07;;;23.10;99.90;;;;;;4946660;29;20670;-80
2021/09/11 09:08:50;;;;;;;8.27;7.67;;;23.20;99.90;;;;;;4951523;28;20269;-79
2021/09/11 09:11:28;;;;;;;6.03;5.53;;;23.20;99.90;;;;;;4960358;28;20257;-81
2021/09/11 09:13:58;;;;;;;6.50;6.00;;;23.10;99.90;;;;;;4958113;29;20688;-81
2021/09/11 09:16:26;;;;;;;6.63;6.03;;;23.10;99.90;;;;;;4965769;28;20265;-80
2021/09/11 09:18:54;;;;;;;6.70;6.20;;;23.20;99.90;;;;;;4967982;28;20222;-81
2021/09/11 09:21:24;;;;;;;7.33;6.80;;;23.30;99.90;;;;;;4957242;28;20671;-81
2021/09/11 09:23:55;;;;;;;8.00;7.40;;;23.40;99.90;;;;;;4953091;28;20573;-81
2021/09/11 09:26:22;;;;;;;8.60;7.90;;;23.50;99.90;;;;;;4953553;28;20681;-81
2021/09/11 09:29:06;;;;;;;7.20;6.50;;;23.50;99.90;;;;;;4957792;28;20215;-81
2021/09/11 09:31:34;;;;;;;7.03;6.57;;;23.70;99.90;;;;;;4952826;28;20604;-82
2021/09/11 09:34:01;;;;;;;8.03;7.43;;;24.00;99.90;;;;;;4956269;28;20214;-81
2021/09/11 09:36:36;;;;;;;7.33;6.73;;;24.20;99.90;;;;;;4955068;28;20686;-81
2021/09/11 09:39:07;;;;;;;7.10;6.60;;;24.30;99.90;;;;;;4958495;28;20316;-81
2021/09/11 09:41:48;;;;;;;7.00;6.50;;;24.50;99.90;;;;;;4967005;28;20212;-83
2021/09/11 09:44:20;;;;;;;8.70;8.10;;;24.40;99.90;;;;;;4951424;28;20207;-82
2021/09/11 09:46:49;;;;;;;5.40;5.00;;;24.30;99.90;;;;;;4943737;28;20261;-83
2021/09/11 09:49:21;;;;;;;4.03;3.57;;;24.40;99.90;;;;;;4951428;28;20223;-83
2021/09/11 09:51:49;;;;;;;9.50;8.80;;;24.50;99.90;;;;;;4944125;28;20694;-80
2021/09/11 09:54:20;;;;;;;9.40;8.70;;;24.40;99.90;;;;;;4942430;28;20558;-83
2021/09/11 09:56:47;;;;;;;9.70;9.00;;;24.50;99.90;;;;;;4947876;28;20194;-82
2021/09/11 09:59:16;;;;;;;8.70;8.10;;;24.50;99.90;;;;;;4952318;28;20234;-83
2021/09/11 10:01:44;;;;;;;9.50;8.80;;;24.40;99.90;;;;;;4964139;28;20262;-80
2021/09/11 10:04:19;;;;;;;4.07;3.67;;;24.30;99.90;;;;;;4955985;28;20203;-80
2021/09/11 10:06:50;;;;;;;4.13;3.70;;;24.40;99.90;;;;;;4955964;28;20238;-82
2021/09/11 10:23:21;;;;;;;3.90;3.37;;;24.10;99.90;;;;;;4911039;29;20222;-81
2021/09/11 10:26:00;;;;;;;3.60;3.30;;;24.30;99.90;;;;;;4983981;28;20225;-79
2021/09/11 10:36:04;;;;;;;3.90;3.60;;;24.60;99.90;;;;;;4902881;29;20651;-79
2021/09/11 10:38:39;;;;;;;3.00;2.80;;;24.30;99.90;;;;;;4904887;29;20234;-79
2021/09/11 10:41:10;;;;;;;3.20;3.00;;;24.60;99.90;;;;;;5003919;28;20216;-80
2021/09/11 10:43:37;;;;;;;3.57;3.10;;;24.50;99.90;;;;;;4986083;28;20388;-78
2021/09/11 10:46:09;;;;;;;5.93;5.43;;;24.50;99.90;;;;;;4990594;28;20206;-80
2021/09/11 10:48:51;;;;;;;3.90;3.60;;;24.60;99.90;;;;;;4968261;28;20479;-79
2021/09/11 10:51:29;;;;;;;3.40;2.83;;;24.70;99.90;;;;;;4964899;28;20738;-79
2021/09/11 10:54:25;;;;;;;3.23;2.93;;;24.80;99.90;;;;;;4988167;28;20228;-81
2021/09/11 10:57:03;;;;;;;3.80;2.80;;;24.90;99.90;;;;;;4982112;28;20218;-79
2021/09/11 10:59:43;;;;;;;2.87;2.67;;;24.80;99.90;;;;;;4982173;28;20645;-80
2021/09/11 11:02:12;;;;;;;3.30;2.97;;;24.90;99.90;;;;;;4978447;28;20202;-79
2021/09/11 11:04:41;;;;;;;3.87;3.53;;;24.80;99.90;;;;;;4986387;28;20201;-79
2021/09/11 11:07:10;;;;;;;8.50;7.90;;;24.70;99.90;;;;;;4968824;28;20229;-80
2021/09/11 11:09:39;;;;;;;7.70;7.20;;;24.50;99.90;;;;;;4984211;28;20213;-80
2021/09/11 11:12:08;;;;;;;7.10;6.60;;;24.40;99.90;;;;;;4985490;28;20206;-78
2021/09/11 11:14:37;;;;;;;9.20;8.60;;;24.40;99.90;;;;;;4994323;28;20207;-80
2021/09/11 11:17:04;;;;;;;9.20;8.60;;;24.40;99.90;;;;;;5008520;28;20193;-78
2021/09/11 11:19:33;;;;;;;5.87;5.47;;;24.30;99.90;;;;;;5004041;28;20227;-82
2021/09/11 11:22:03;;;;;;;8.27;7.70;;;24.10;99.90;;;;;;4986514;28;20201;-84
2021/09/11 11:24:35;;;;;;;8.20;7.60;;;24.10;99.90;;;;;;4966461;28;20222;-84
2021/09/11 11:27:04;;;;;;;8.30;7.80;;;24.10;99.90;;;;;;4987065;28;20201;-83
2021/09/11 11:29:31;;;;;;;8.60;8.00;;;24.30;99.90;;;;;;4975576;28;20248;-80
2021/09/11 11:32:01;;;;;;;8.80;8.20;;;24.20;99.90;;;;;;4962792;28;20236;-83
2021/09/11 11:34:28;;;;;;;8.30;7.80;;;24.30;99.90;;;;;;5008464;28;20297;-84
2021/09/11 11:36:56;;;;;;;7.83;7.33;;;24.30;99.90;;;;;;4978611;28;20636;-83
2021/09/11 11:39:26;;;;;;;7.77;7.27;;;24.30;99.90;;;;;;4995191;28;20221;-83
2021/09/11 11:42:00;;;;;;;8.27;7.77;;;24.20;99.90;;;;;;4989770;28;20204;-83
2021/09/11 11:44:29;;;;;;;8.60;8.10;;;24.10;99.90;;;;;;4986862;28;20199;-79
2021/09/11 11:47:03;;;;;;;8.73;8.13;;;24.00;99.90;;;;;;4998545;28;20203;-83
2021/09/11 11:49:37;;;;;;;8.20;7.70;;;23.90;99.90;;;;;;4991058;28;20217;-83
2021/09/11 11:52:06;;;;;;;8.73;8.13;;;23.80;99.90;;;;;;5006256;28;20195;-83
2021/09/11 11:54:35;;;;;;;9.27;8.57;;;23.70;99.90;;;;;;5004301;28;20284;-83
2021/09/11 11:57:14;;;;;;;9.07;8.37;;;23.30;99.90;;;;;;4986002;28;20208;-83
2021/09/11 11:59:42;;;;;;;8.47;7.93;;;22.90;99.90;;;;;;5012895;23;20236;-78
2021/09/11 12:02:20;;;;;;;10.60;9.60;;;22.60;99.90;;;;;;5022272;28;20200;-77
2021/09/11 12:04:47;;;;;;;10.60;9.50;;;22.10;99.90;;;;;;5030396;28;20200;-77
2021/09/11 12:07:27;;;;;;;9.13;8.40;;;21.70;99.90;;;;;;5019895;28;20204;-77
2021/09/11 12:09:54;;;;;;;9.37;8.50;;;21.40;99.90;;;;;;4999187;28;20665;-77
2021/09/11 12:12:22;;;;;;;9.67;8.77;;;21.30;99.90;;;;;;5015509;28;20200;-82
2021/09/11 12:14:49;;;;;;;8.53;7.83;;;21.10;99.90;;;;;;4995358;28;20228;-77
2021/09/11 12:17:16;;;;;;;8.87;8.17;;;20.80;99.90;;;;;;4995422;28;20275;-77
2021/09/11 12:19:43;;;;;;;9.27;8.47;;;20.60;99.90;;;;;;5012952;28;20270;-79
2021/09/11 12:22:18;;;;;;;9.80;9.00;;;20.50;99.90;;;;;;4987619;28;20669;-77
2021/09/11 12:24:45;;;;;;;10.23;9.43;;;20.40;99.90;;;;;;4996072;28;20263;-77
2021/09/11 12:27:13;;;;;;;10.17;9.37;;;20.40;99.90;;;;;;4992036;28;20211;-78
2021/09/11 12:29:41;;;;;;;9.93;9.13;;;20.30;99.90;;;;;;5004633;28;20225;-77
2021/09/11 12:32:17;;;;;;;9.90;9.00;;;20.20;99.90;;;;;;4995583;28;20208;-78
2021/09/11 12:34:45;;;;;;;10.07;9.17;;;20.30;99.90;;;;;;4995074;28;20219;-78
2021/09/11 12:37:11;;;;;;;9.20;8.50;;;20.40;99.90;;;;;;4985033;28;20289;-77
2021/09/11 12:39:39;;;;;;;8.70;8.00;;;20.50;99.90;;;;;;5005655;28;20234;-77
2021/09/11 12:42:12;;;;;;;8.57;7.97;;;20.50;99.90;;;;;;4995094;28;20250;-77
2021/09/11 12:44:42;;;;;;;8.90;8.30;;;20.60;99.90;;;;;;4992728;28;20212;-77
2021/09/11 12:47:11;;;;;;;8.40;7.70;;;20.70;99.90;;;;;;4993583;28;20602;-77
2021/09/11 12:49:39;;;;;;;8.73;8.13;;;20.70;99.90;;;;;;4996293;28;20244;-77
2021/09/11 12:52:07;;;;;;;8.80;8.10;;;20.70;99.90;;;;;;4993190;28;20209;-77
2021/09/11 12:54:34;;;;;;;8.87;8.23;;;20.80;99.90;;;;;;5008116;28;20301;-77
2021/09/11 12:57:01;;;;;;;9.67;8.97;;;20.80;99.90;;;;;;5011338;28;20617;-78
2021/09/11 12:59:28;;;;;;;8.60;8.07;;;20.90;99.90;;;;;;5006113;28;20230;-78
2021/09/11 13:01:56;;;;;;;9.20;8.60;;;20.90;99.90;;;;;;4999349;28;20230;-77
2021/09/11 13:04:23;;;;;;;9.00;8.30;;;20.80;99.90;;;;;;5014753;28;20224;-77